createdAt,value
2023-03-03T00:00:01.049Z,13.53
2023-03-03T00:02:41.105Z,12.50
2023-03-03T00:05:09.212Z,15.63
2023-03-03T00:07:36.656Z,14.50
2023-03-03T00:13:02.972Z,14.60
2023-03-03T00:15:31.192Z,13.23
2023-03-03T00:18:00.488Z,14.20
2023-03-03T00:20:33.012Z,13.63
2023-03-03T00:23:10.201Z,13.40
2023-03-03T00:25:37.706Z,14.83
2023-03-03T00:28:09.169Z,13.27
2023-03-03T00:33:33.189Z,13.80
2023-03-03T00:39:20.948Z,14.63
2023-03-03T00:41:50.742Z,14.00
2023-03-03T00:44:40.038Z,14.40
2023-03-03T00:47:31.610Z,14.70
2023-03-03T00:52:56.559Z,13.97
2023-03-03T00:55:24.112Z,15.30
2023-03-03T00:57:51.613Z,14.77
2023-03-03T01:00:22.930Z,14.27
2023-03-03T01:02:51.922Z,15.40
2023-03-03T01:05:20.089Z,15.40
2023-03-03T01:10:40.618Z,14.23
2023-03-03T01:13:09.430Z,14.83
2023-03-03T01:15:37.074Z,15.03
2023-03-03T01:18:04.711Z,13.80
2023-03-03T01:20:32.307Z,15.03
2023-03-03T01:22:59.868Z,14.03
2023-03-03T01:28:31.275Z,14.53
2023-03-03T01:31:01.832Z,13.87
2023-03-03T01:33:29.395Z,13.57
2023-03-03T01:35:56.925Z,14.70
2023-03-03T01:38:24.348Z,14.37
2023-03-03T01:40:56.775Z,13.83
2023-03-03T01:43:24.669Z,14.80
2023-03-03T01:46:38.006Z,13.80
2023-03-03T01:49:11.183Z,13.07
2023-03-03T01:51:42.611Z,15.00
2023-03-03T01:54:13.563Z,14.20
2023-03-03T01:56:41.622Z,14.30
2023-03-03T02:02:12.213Z,13.93
2023-03-03T02:04:41.336Z,13.77
2023-03-03T02:10:12.805Z,15.03
2023-03-03T02:12:43.042Z,14.40
2023-03-03T02:15:18.749Z,15.10
2023-03-03T02:17:47.213Z,14.60
2023-03-03T02:20:18.937Z,13.73
2023-03-03T02:22:52.415Z,14.17
2023-03-03T02:25:23.579Z,14.33
2023-03-03T02:27:53.425Z,14.97
2023-03-03T02:33:24.015Z,14.23
2023-03-03T02:35:53.020Z,14.40
2023-03-03T02:38:24.038Z,14.50
2023-03-03T02:41:00.819Z,13.10
2023-03-03T02:43:34.316Z,14.67
2023-03-03T02:46:02.776Z,14.07
2023-03-03T02:48:30.238Z,12.27
2023-03-03T02:50:57.746Z,14.13
2023-03-03T02:53:25.184Z,14.83
2023-03-03T02:55:53.775Z,15.53
2023-03-03T02:58:21.224Z,14.50
2023-03-03T03:00:50.232Z,14.50
2023-03-03T03:03:22.206Z,14.40
2023-03-03T03:05:50.321Z,14.80
2023-03-03T03:08:20.989Z,14.07
2023-03-03T03:13:51.847Z,13.37
2023-03-03T03:16:21.314Z,14.97
2023-03-03T03:18:50.243Z,14.77
2023-03-03T03:21:17.909Z,14.43
2023-03-03T03:26:34.037Z,14.47
2023-03-03T03:29:01.757Z,13.87
2023-03-03T03:31:31.129Z,15.30
2023-03-03T03:34:00.470Z,15.20
2023-03-03T03:36:29.082Z,14.77
2023-03-03T03:38:57.033Z,15.67
2023-03-03T03:41:24.480Z,14.47
2023-03-03T03:43:51.944Z,15.73
2023-03-03T03:46:19.597Z,15.60
2023-03-03T03:48:48.508Z,16.13
2023-03-03T03:54:08.029Z,15.97
2023-03-03T03:56:37.182Z,16.27
2023-03-03T03:59:06.987Z,16.13
2023-03-03T04:01:34.623Z,15.57
2023-03-03T04:04:04.019Z,16.83
2023-03-03T04:06:31.517Z,15.70
2023-03-03T04:11:57.958Z,19.13
2023-03-03T04:14:26.942Z,19.33
2023-03-03T04:16:55.326Z,20.50
2023-03-03T04:19:24.633Z,20.57
2023-03-03T04:21:52.513Z,20.90
2023-03-03T04:24:20.220Z,20.33
2023-03-03T04:29:49.155Z,21.30
2023-03-03T04:32:18.398Z,21.90
2023-03-03T04:34:53.072Z,20.77
2023-03-03T04:37:26.946Z,21.67
2023-03-03T04:39:54.575Z,21.80
2023-03-03T04:42:23.081Z,21.03
2023-03-03T04:47:39.368Z,20.27
2023-03-03T04:50:10.690Z,20.80
2023-03-03T04:52:38.514Z,20.17
2023-03-03T04:55:10.583Z,21.10
2023-03-03T04:57:38.908Z,19.77
2023-03-03T05:03:09.250Z,21.07
2023-03-03T05:05:38.193Z,20.77
2023-03-03T05:11:07.968Z,21.17
2023-03-03T05:16:35.060Z,19.27
2023-03-03T05:19:02.543Z,21.07
2023-03-03T05:21:31.271Z,20.53
2023-03-03T05:23:58.722Z,21.63
2023-03-03T05:26:26.204Z,21.23
2023-03-03T05:28:53.671Z,20.63
2023-03-03T05:31:21.257Z,20.00
2023-03-03T05:33:48.835Z,19.07
2023-03-03T05:36:16.283Z,19.73
2023-03-03T05:38:45.090Z,21.60
2023-03-03T05:41:12.515Z,19.93
2023-03-03T05:43:40.531Z,20.40
2023-03-03T05:46:08.308Z,20.53
2023-03-03T05:48:35.814Z,19.37
2023-03-03T05:51:03.253Z,20.30
2023-03-03T05:53:31.180Z,19.03
2023-03-03T05:56:00.201Z,19.03
2023-03-03T05:58:31.867Z,19.65
2023-03-03T06:00:59.344Z,19.13
2023-03-03T06:03:26.846Z,20.00
2023-03-03T06:05:54.386Z,17.80
2023-03-03T06:08:21.908Z,18.50
2023-03-03T06:10:49.410Z,20.37
2023-03-03T06:13:18.416Z,17.27
2023-03-03T06:15:45.883Z,17.13
2023-03-03T06:21:11.981Z,17.17
2023-03-03T06:23:39.452Z,17.00
2023-03-03T06:29:05.750Z,16.37
2023-03-03T06:34:30.931Z,16.87
2023-03-03T06:36:58.395Z,16.73
2023-03-03T06:39:25.980Z,17.73
2023-03-03T06:41:53.535Z,18.00
2023-03-03T06:47:21.331Z,16.00
2023-03-03T06:49:48.777Z,17.67
2023-03-03T06:52:20.473Z,17.07
2023-03-03T06:54:50.684Z,17.40
2023-03-03T06:57:23.518Z,18.43
2023-03-03T06:59:53.876Z,18.50
2023-03-03T07:02:23.827Z,17.40
2023-03-03T07:04:51.563Z,17.60
2023-03-03T07:07:21.203Z,17.23
2023-03-03T07:09:50.676Z,17.37
2023-03-03T07:12:22.096Z,16.83
2023-03-03T07:14:55.360Z,18.23
2023-03-03T07:17:25.632Z,17.47
2023-03-03T07:22:41.922Z,16.63
2023-03-03T07:25:21.080Z,17.43
2023-03-03T07:30:31.448Z,16.97
2023-03-03T07:33:00.496Z,16.43
2023-03-03T07:35:36.386Z,16.03
2023-03-03T07:38:03.910Z,15.93
2023-03-03T07:40:36.793Z,15.17
2023-03-03T07:43:23.126Z,14.60
2023-03-03T07:45:51.123Z,15.57
2023-03-03T07:48:25.494Z,14.50
2023-03-03T07:50:53.065Z,15.93
2023-03-03T07:53:26.884Z,16.03
2023-03-03T07:55:54.948Z,14.03
2023-03-03T07:58:24.042Z,14.03
2023-03-03T08:01:25.168Z,13.83
2023-03-03T08:03:54.093Z,13.30
2023-03-03T08:09:49.272Z,13.70
2023-03-03T08:12:32.078Z,15.33
2023-03-03T08:15:13.180Z,15.40
2023-03-03T08:17:41.447Z,15.37
2023-03-03T08:20:40.253Z,17.30
2023-03-03T08:23:07.682Z,17.50
2023-03-03T08:25:35.117Z,17.53
2023-03-03T08:28:02.594Z,17.23
2023-03-03T08:30:30.845Z,14.63
2023-03-03T08:32:58.489Z,14.37
2023-03-03T08:38:30.300Z,12.97
2023-03-03T08:40:57.779Z,13.23
2023-03-03T08:43:25.237Z,12.93
2023-03-03T08:45:54.176Z,12.13
2023-03-03T08:48:22.216Z,14.07
2023-03-03T08:51:14.846Z,14.47
2023-03-03T08:53:43.648Z,14.00
2023-03-03T08:56:11.150Z,13.83
2023-03-03T08:58:41.983Z,14.37
2023-03-03T09:04:11.183Z,12.27
2023-03-03T09:06:39.139Z,14.10
2023-03-03T09:09:08.200Z,14.27
2023-03-03T09:11:35.781Z,14.33
2023-03-03T09:16:53.099Z,12.77
2023-03-03T09:19:24.815Z,12.27
2023-03-03T09:21:54.708Z,12.27
2023-03-03T09:24:29.163Z,13.53
2023-03-03T09:26:58.484Z,12.83
2023-03-03T09:32:37.650Z,13.23
2023-03-03T09:35:35.925Z,13.43
2023-03-03T09:38:13.227Z,13.43
2023-03-03T09:40:53.407Z,15.43
2023-03-03T09:43:26.805Z,14.47
2023-03-03T09:49:04.588Z,14.30
2023-03-03T09:54:48.027Z,13.37
2023-03-03T09:57:18.495Z,12.83
2023-03-03T10:00:02.428Z,12.33
2023-03-03T10:02:48.058Z,12.60
2023-03-03T10:05:16.316Z,12.10
2023-03-03T10:07:51.633Z,13.50
2023-03-03T10:10:27.103Z,14.00
2023-03-03T10:13:07.358Z,12.50
2023-03-03T10:15:41.181Z,12.70
2023-03-03T10:18:16.516Z,12.17
2023-03-03T10:20:54.652Z,13.53
2023-03-03T10:23:28.006Z,13.17
2023-03-03T10:26:03.292Z,13.57
2023-03-03T10:28:54.669Z,15.00
2023-03-03T10:31:33.747Z,14.93
2023-03-03T10:34:11.185Z,13.70
2023-03-03T10:36:47.919Z,14.07
2023-03-03T10:39:27.251Z,14.00
2023-03-03T10:42:05.552Z,14.73
2023-03-03T10:47:50.159Z,15.03
2023-03-03T10:50:22.599Z,15.47
2023-03-03T10:52:54.323Z,14.43
2023-03-03T10:58:46.519Z,15.83
2023-03-03T11:01:24.442Z,15.60
2023-03-03T11:04:04.694Z,17.47
2023-03-03T11:06:39.077Z,17.77
2023-03-03T11:12:21.442Z,16.37
2023-03-03T11:18:02.431Z,17.03
2023-03-03T11:20:37.296Z,18.10
2023-03-03T11:23:18.231Z,17.67
2023-03-03T11:25:50.777Z,18.60
2023-03-03T11:31:14.386Z,19.67
2023-03-03T11:33:51.832Z,18.27
2023-03-03T11:36:22.149Z,18.97
2023-03-03T11:38:54.284Z,18.70
2023-03-03T11:41:30.773Z,17.53
2023-03-03T11:44:04.612Z,19.30
2023-03-03T11:46:38.159Z,20.77
2023-03-03T11:49:08.017Z,21.03
2023-03-03T11:51:45.615Z,20.13
2023-03-03T11:54:19.914Z,20.00
2023-03-03T11:56:48.762Z,19.43
2023-03-03T12:02:46.912Z,19.17
2023-03-03T12:05:26.644Z,20.03
2023-03-03T12:07:58.430Z,19.30
2023-03-03T12:10:29.909Z,19.80
2023-03-03T12:16:01.714Z,20.17
2023-03-03T12:18:40.731Z,19.60
2023-03-03T12:21:18.098Z,19.97
2023-03-03T12:24:04.911Z,20.00
2023-03-03T12:26:35.714Z,19.20
2023-03-03T12:29:07.563Z,20.33
2023-03-03T12:34:28.388Z,21.27
2023-03-03T12:37:05.130Z,19.87
2023-03-03T12:39:43.446Z,20.00
2023-03-03T12:42:15.807Z,19.27
2023-03-03T12:44:47.032Z,19.23
2023-03-03T12:47:19.623Z,20.77
2023-03-03T12:52:55.272Z,17.80
2023-03-03T12:55:27.969Z,18.47
2023-03-03T13:00:59.463Z,18.63
2023-03-03T13:06:33.916Z,19.80
2023-03-03T13:09:17.454Z,18.93
2023-03-03T13:11:54.168Z,18.67
2023-03-03T13:14:31.061Z,18.57
2023-03-03T13:20:02.290Z,20.10
2023-03-03T13:22:38.122Z,17.80
2023-03-03T13:25:10.118Z,19.27
2023-03-03T13:27:40.785Z,19.80
2023-03-03T13:30:17.738Z,18.93
2023-03-03T13:35:56.226Z,18.70
2023-03-03T13:38:26.758Z,16.80
2023-03-03T13:41:01.085Z,18.70
2023-03-03T13:43:31.500Z,17.67
2023-03-03T13:49:08.278Z,18.83
2023-03-03T13:54:58.126Z,17.70
2023-03-03T13:57:35.072Z,17.77
2023-03-03T14:00:10.950Z,17.40
2023-03-03T14:03:04.931Z,17.00
2023-03-03T14:05:38.223Z,16.57
2023-03-03T14:08:12.482Z,16.20
2023-03-03T14:10:45.575Z,15.97
2023-03-03T14:13:14.052Z,15.50
2023-03-03T14:15:47.431Z,15.47
2023-03-03T14:18:25.121Z,17.33
2023-03-03T14:20:53.802Z,15.87
2023-03-03T14:23:24.340Z,15.57
2023-03-03T14:29:07.471Z,14.65
2023-03-03T14:31:40.863Z,14.80
2023-03-03T14:34:34.043Z,14.40
2023-03-03T14:37:20.763Z,15.43
2023-03-03T14:39:52.080Z,14.23
2023-03-03T14:42:33.665Z,14.90
2023-03-03T14:45:05.037Z,13.57
2023-03-03T14:47:32.523Z,14.97
2023-03-03T14:53:15.120Z,14.00
2023-03-03T14:55:44.269Z,14.00
2023-03-03T14:58:33.060Z,14.60
2023-03-03T15:03:59.384Z,13.10
2023-03-03T15:06:34.362Z,12.77
2023-03-03T15:09:33.657Z,13.20
2023-03-03T15:12:01.897Z,12.83
2023-03-03T15:14:36.634Z,12.97
2023-03-03T15:20:06.361Z,12.23
2023-03-03T15:22:47.895Z,13.43
2023-03-03T15:25:22.852Z,12.77
2023-03-03T15:27:52.789Z,12.53
2023-03-03T15:30:26.186Z,12.63
2023-03-03T15:33:01.022Z,11.67
2023-03-03T15:35:38.518Z,12.00
2023-03-03T15:41:19.203Z,12.80
2023-03-03T15:43:53.462Z,12.97
2023-03-03T15:46:28.359Z,12.40
2023-03-03T15:49:03.826Z,12.33
2023-03-03T15:51:53.841Z,12.00
2023-03-03T15:54:46.861Z,11.33
2023-03-03T15:57:19.510Z,11.93
2023-03-03T16:00:07.989Z,11.53
2023-03-03T16:02:50.347Z,12.07
2023-03-03T16:08:25.585Z,11.97
2023-03-03T16:11:00.556Z,12.27
2023-03-03T16:16:34.563Z,12.10
2023-03-03T16:19:08.265Z,12.37
2023-03-03T16:21:50.258Z,13.20
2023-03-03T16:24:26.085Z,12.93
2023-03-03T16:26:56.062Z,13.47
2023-03-03T16:29:34.971Z,13.03
2023-03-03T16:32:06.238Z,13.50
2023-03-03T16:34:38.497Z,12.47
2023-03-03T16:37:13.979Z,13.10
2023-03-03T16:42:48.283Z,13.93
2023-03-03T16:48:30.325Z,12.53
2023-03-03T16:51:10.620Z,13.27
2023-03-03T16:53:47.694Z,13.73
2023-03-03T17:22:27.569Z,16.83
2023-03-03T17:25:05.376Z,15.33
2023-03-03T17:27:41.619Z,16.03
2023-03-03T17:30:15.287Z,14.90
2023-03-03T17:32:54.592Z,15.33
2023-03-03T17:35:34.340Z,16.27
2023-03-03T17:41:06.010Z,16.27
2023-03-03T17:43:39.911Z,17.27
2023-03-03T17:46:22.142Z,17.97
2023-03-03T17:49:07.484Z,17.93
2023-03-03T17:51:46.055Z,16.80
2023-03-03T17:57:30.394Z,16.73
2023-03-03T18:00:27.561Z,15.87
2023-03-03T18:03:16.049Z,15.53
2023-03-03T18:05:55.394Z,16.27
2023-03-03T18:08:42.068Z,16.00
2023-03-03T18:11:16.506Z,16.07
2023-03-03T18:13:56.887Z,17.50
2023-03-03T18:16:33.855Z,16.40
2023-03-03T18:19:13.358Z,16.00
2023-03-03T18:21:45.079Z,16.40
2023-03-03T18:24:28.246Z,15.93
2023-03-03T18:26:56.694Z,16.53
2023-03-03T18:29:27.821Z,17.17
2023-03-03T18:32:05.474Z,16.53
2023-03-03T18:34:38.485Z,17.20
2023-03-03T18:37:10.650Z,16.90
2023-03-03T18:39:48.092Z,17.40
2023-03-03T18:42:37.941Z,18.07
2023-03-03T18:48:09.037Z,16.57
2023-03-03T18:50:38.164Z,18.67
2023-03-03T18:53:23.746Z,17.90
2023-03-03T18:55:52.855Z,18.67
2023-03-03T18:58:32.616Z,16.70
2023-03-03T19:01:02.303Z,17.30
2023-03-03T19:03:34.101Z,16.77
2023-03-03T19:06:02.594Z,18.03
2023-03-03T19:08:45.893Z,16.53
2023-03-03T19:11:33.233Z,16.50
2023-03-03T19:16:58.966Z,15.00
2023-03-03T19:22:31.620Z,15.70
2023-03-03T19:25:08.054Z,16.87
2023-03-03T19:30:54.884Z,16.27
2023-03-03T19:36:37.230Z,15.97
2023-03-03T19:39:18.509Z,15.20
2023-03-03T19:41:53.612Z,15.30
2023-03-03T19:44:31.043Z,16.00
2023-03-03T19:47:01.911Z,16.13
2023-03-03T19:49:43.546Z,15.47
2023-03-03T19:52:17.856Z,15.67
2023-03-03T19:58:00.119Z,16.77
2023-03-03T20:00:33.506Z,15.80
2023-03-03T20:03:39.678Z,16.80
2023-03-03T20:06:17.267Z,15.20
2023-03-03T20:08:51.861Z,15.10
2023-03-03T20:11:35.774Z,15.87
2023-03-03T20:17:18.206Z,15.30
2023-03-03T20:19:51.952Z,14.30
2023-03-03T20:22:26.911Z,15.40
2023-03-03T20:25:02.614Z,15.07
2023-03-03T20:27:45.809Z,14.60
2023-03-03T20:30:20.487Z,13.30
2023-03-03T20:35:55.255Z,15.53
2023-03-03T20:38:27.964Z,14.63
2023-03-03T20:41:03.171Z,14.77
2023-03-03T20:43:41.422Z,15.27
2023-03-03T20:49:11.038Z,13.97
2023-03-03T20:51:42.385Z,15.07
2023-03-03T20:54:16.982Z,14.63
2023-03-03T20:56:48.800Z,15.07
2023-03-03T20:59:23.134Z,13.20
2023-03-03T21:01:54.793Z,15.80
2023-03-03T21:04:24.357Z,14.67
2023-03-03T21:09:49.455Z,14.77
2023-03-03T21:15:28.903Z,15.43
2023-03-03T21:17:58.064Z,13.67
2023-03-03T21:20:28.743Z,15.47
2023-03-03T21:22:56.689Z,14.87
2023-03-03T21:28:24.953Z,14.23
2023-03-03T21:31:14.114Z,14.77
2023-03-03T21:36:47.154Z,13.83
2023-03-03T21:39:22.478Z,14.20
2023-03-03T21:44:43.954Z,13.43
2023-03-03T21:47:15.087Z,13.30
2023-03-03T21:49:43.359Z,14.07
2023-03-03T21:52:11.453Z,11.17
2023-03-03T21:57:41.657Z,11.37
2023-03-03T22:00:10.388Z,11.23
2023-03-03T22:02:39.204Z,10.77
2023-03-03T22:05:07.978Z,9.40
2023-03-03T22:07:35.487Z,10.47
2023-03-03T22:10:02.991Z,9.50
2023-03-03T22:12:30.425Z,9.37
2023-03-03T22:14:57.877Z,9.50
2023-03-03T22:17:25.456Z,9.13
2023-03-03T22:22:56.936Z,9.17
2023-03-03T22:25:24.629Z,9.00
2023-03-03T22:27:52.055Z,9.47
2023-03-03T22:30:19.667Z,9.30
2023-03-03T22:32:47.091Z,8.97
2023-03-03T22:35:14.752Z,9.20
2023-03-03T22:40:42.223Z,9.43
2023-03-03T22:43:11.278Z,9.07
2023-03-03T22:45:38.807Z,9.40
2023-03-03T22:48:06.562Z,8.67
2023-03-03T22:50:39.252Z,8.07
2023-03-03T22:53:06.691Z,8.40
2023-03-03T22:55:36.830Z,8.87
2023-03-03T22:58:07.536Z,8.43
2023-03-03T23:03:37.066Z,7.27
2023-03-03T23:06:05.265Z,6.33
2023-03-03T23:08:32.705Z,6.13
2023-03-03T23:11:02.773Z,6.90
2023-03-03T23:13:32.298Z,8.00
2023-03-03T23:16:00.228Z,6.17
2023-03-03T23:21:30.607Z,6.37
2023-03-03T23:23:58.030Z,7.03
2023-03-03T23:26:58.010Z,6.10
2023-03-03T23:29:26.876Z,5.40
2023-03-03T23:31:54.452Z,5.87
2023-03-03T23:34:21.991Z,4.70
2023-03-03T23:36:49.501Z,5.23
2023-03-03T23:39:17.356Z,5.60
2023-03-03T23:41:45.562Z,5.57
2023-03-03T23:44:13.435Z,5.07
2023-03-03T23:46:42.335Z,4.97
2023-03-03T23:49:09.851Z,5.20
2023-03-03T23:51:37.453Z,5.50
2023-03-03T23:54:05.188Z,4.57
2023-03-03T23:56:32.657Z,5.63
2023-03-03T23:59:00.120Z,4.80
